Airport View

Enter AWOS ICAO identifier for current METAR.

ex. KFNL

KMVN 250156Z AUTO 25011KT 10SM TS FEW038 BKN048 OVC100 23/19 A2996 RMK AO2 WSHFT 0140 LTG DSNT W-N TSB36E51B55 SLP144 T02330189 PNO $

25 May 2020 02:22

Frequency: 113.8

Phone: 618-242-7933

Other Area AWOS: KENL - KSLO - KFWC - KFOA

TAF AMD KBLV 250024Z 2500/2606 VRB06KT 9999 -DZ VCTS SCT018 BKN035CB QNH2989INS BECMG 2502/2503 VRB06KT 9999 NSW SCT016 BKN030 QNH2990INS TEMPO 2503/2506 20015G20KT 6000 -TSRA BKN030CB BECMG 2514/2515 17010G15KT 9999 BKN060 QNH2990INS TEMPO 2523/2603 19015G20KT 4800 TSRA BKN030CB BECMG 2603/2604 VRB06KT 9999 SCT020 BKN040 QNH2995INS TX30/2520Z TN20/2509Z